Time;durP1;ratioP1;P1;durP2;ratioP2;P2;SDS_P1;SDS_P2;PMS_P1;PMS_P2;Temp;Humidity;BMP_temperature;BMP_pressure;BME280_temperature;BME280_humidity;BME280_pressure;Samples;Min_cycle;Max_cycle;Signal;HPM_P1;HPM_P2
2023/12/25 00:01:46;;;;;;;4.55;1.58;;;10.60;99.90;;;;;;4985617;28;20430;-71
2023/12/25 00:04:12;;;;;;;3.60;1.20;;;10.60;99.90;;;;;;4999432;28;20282;-72
2023/12/25 00:06:37;;;;;;;6.18;1.58;;;10.60;99.90;;;;;;5028621;28;20461;-71
2023/12/25 00:09:03;;;;;;;4.18;1.95;;;10.60;99.90;;;;;;4990643;28;20053;-72
2023/12/25 00:11:28;;;;;;;6.25;2.08;;;10.70;99.90;;;;;;4983504;28;20125;-72
2023/12/25 00:13:55;;;;;;;1.42;0.80;;;10.60;99.90;;;;;;4963211;28;20524;-72
2023/12/25 00:16:21;;;;;;;2.75;1.15;;;10.70;99.90;;;;;;4997524;28;20042;-71
2023/12/25 00:18:47;;;;;;;5.57;1.17;;;10.70;99.90;;;;;;4966286;28;20050;-72
2023/12/25 00:21:12;;;;;;;3.72;1.50;;;10.70;99.90;;;;;;4978387;28;20048;-72
2023/12/25 00:23:38;;;;;;;3.65;1.45;;;10.70;99.90;;;;;;5027661;28;20049;-72
2023/12/25 00:26:03;;;;;;;3.28;1.08;;;10.70;99.90;;;;;;4979473;28;20041;-72
2023/12/25 00:28:29;;;;;;;2.60;1.25;;;10.60;99.90;;;;;;4979549;28;20647;-71
2023/12/25 00:30:54;;;;;;;5.45;1.10;;;10.60;99.90;;;;;;4981141;28;20088;-71
2023/12/25 00:33:20;;;;;;;1.05;0.75;;;10.60;99.90;;;;;;5011480;28;20492;-72
2023/12/25 00:35:45;;;;;;;11.48;2.42;;;10.60;99.90;;;;;;4998377;28;20066;-71
2023/12/25 00:38:11;;;;;;;8.02;1.50;;;10.60;99.90;;;;;;4989533;28;20124;-72
2023/12/25 00:40:36;;;;;;;6.00;0.80;;;10.60;99.90;;;;;;5025403;28;20046;-71
2023/12/25 00:43:02;;;;;;;1.23;0.50;;;10.60;99.90;;;;;;4986546;28;20432;-72
2023/12/25 00:45:28;;;;;;;6.45;1.50;;;10.60;99.90;;;;;;4981460;28;20302;-72
2023/12/25 00:47:53;;;;;;;6.07;1.45;;;10.60;99.90;;;;;;4979432;28;20081;-71
2023/12/25 00:50:19;;;;;;;3.80;2.10;;;10.50;99.90;;;;;;4992918;28;20042;-72
2023/12/25 00:52:44;;;;;;;2.65;1.02;;;10.50;99.90;;;;;;5030243;28;20104;-71
2023/12/25 00:55:10;;;;;;;3.03;1.88;;;10.50;99.90;;;;;;4989515;28;20050;-71
2023/12/25 00:57:35;;;;;;;4.95;0.93;;;10.50;99.90;;;;;;5029828;28;20037;-72
2023/12/25 01:00:01;;;;;;;3.50;1.13;;;10.50;99.90;;;;;;4979779;28;20592;-72
2023/12/25 01:02:26;;;;;;;5.07;0.85;;;10.40;99.90;;;;;;4979580;28;20468;-71
2023/12/25 01:04:52;;;;;;;3.95;1.35;;;10.40;99.90;;;;;;4986657;28;20127;-72
2023/12/25 01:07:18;;;;;;;1.83;0.75;;;10.40;99.90;;;;;;4998302;28;20041;-72
2023/12/25 01:09:43;;;;;;;5.88;1.38;;;10.40;99.90;;;;;;4986609;28;20340;-71
2023/12/25 01:12:09;;;;;;;3.60;1.10;;;10.40;99.90;;;;;;4996791;28;20612;-71
2023/12/25 01:14:35;;;;;;;4.43;1.15;;;10.30;99.90;;;;;;5019156;28;20559;-71
2023/12/25 01:17:01;;;;;;;3.40;2.17;;;10.30;99.90;;;;;;4981708;28;20042;-72
2023/12/25 01:19:26;;;;;;;5.03;1.30;;;10.30;99.90;;;;;;4987618;28;20548;-72
2023/12/25 01:21:52;;;;;;;3.58;1.48;;;10.30;99.90;;;;;;4994853;28;20452;-70
2023/12/25 01:24:17;;;;;;;3.47;1.10;;;10.30;99.90;;;;;;5003449;28;20049;-71
2023/12/25 01:26:43;;;;;;;12.70;1.50;;;10.20;99.90;;;;;;4989392;28;20043;-71
2023/12/25 01:29:08;;;;;;;5.07;1.02;;;10.20;99.90;;;;;;5015446;28;20096;-72
2023/12/25 01:31:35;;;;;;;17.63;2.05;;;10.20;99.90;;;;;;4992251;28;20481;-72
2023/12/25 01:34:01;;;;;;;3.90;1.48;;;10.20;99.90;;;;;;4987207;28;20545;-72
2023/12/25 01:36:27;;;;;;;10.50;1.85;;;10.20;99.90;;;;;;5016011;28;20046;-72
2023/12/25 01:38:52;;;;;;;3.10;1.58;;;10.10;99.90;;;;;;4982981;28;20065;-72
2023/12/25 01:41:19;;;;;;;15.20;1.73;;;10.10;99.90;;;;;;4985782;28;20134;-71
2023/12/25 01:43:45;;;;;;;4.28;1.63;;;10.10;99.90;;;;;;5017086;28;20362;-71
2023/12/25 01:46:13;;;;;;;5.32;0.88;;;10.10;99.90;;;;;;4984056;28;20050;-72
2023/12/25 01:48:41;;;;;;;3.88;1.48;;;10.10;99.90;;;;;;4980059;28;20069;-71
2023/12/25 01:51:07;;;;;;;1.88;1.05;;;10.10;99.90;;;;;;4997811;28;20085;-71
2023/12/25 01:53:33;;;;;;;2.50;1.10;;;10.00;99.90;;;;;;5001038;28;20054;-71
2023/12/25 01:55:59;;;;;;;4.50;1.33;;;10.00;99.90;;;;;;4992897;28;20042;-72
2023/12/25 01:58:24;;;;;;;7.25;1.20;;;10.10;99.90;;;;;;4984972;28;20409;-72
2023/12/25 02:00:50;;;;;;;4.72;1.35;;;10.10;99.90;;;;;;4981332;28;20050;-72
2023/12/25 02:03:16;;;;;;;2.70;1.42;;;10.10;99.90;;;;;;4982676;28;20407;-71
2023/12/25 02:05:42;;;;;;;4.57;1.70;;;10.10;99.90;;;;;;5005483;28;20050;-72
2023/12/25 02:08:13;;;;;;;5.70;1.02;;;10.10;99.90;;;;;;5030573;28;20034;-71
2023/12/25 02:10:39;;;;;;;5.57;2.08;;;10.10;99.90;;;;;;4982617;28;20154;-72
2023/12/25 02:13:05;;;;;;;6.60;1.13;;;10.00;99.90;;;;;;4982905;28;20746;-71
2023/12/25 02:15:31;;;;;;;3.63;1.27;;;10.00;99.90;;;;;;4982484;28;20109;-72
2023/12/25 02:17:57;;;;;;;5.93;1.75;;;9.90;99.90;;;;;;4977748;28;20192;-72
2023/12/25 02:20:23;;;;;;;14.27;1.00;;;9.90;99.90;;;;;;4989454;28;20049;-71
2023/12/25 02:22:49;;;;;;;5.30;1.58;;;9.90;99.90;;;;;;4984483;28;20042;-71
2023/12/25 02:25:31;;;;;;;5.63;1.25;;;9.90;99.90;;;;;;4993934;28;20965;-72
2023/12/25 02:27:57;;;;;;;4.60;2.13;;;9.90;99.90;;;;;;4999571;28;20444;-71
2023/12/25 02:30:23;;;;;;;4.22;1.08;;;9.90;99.90;;;;;;4993476;28;20073;-71
2023/12/25 02:32:48;;;;;;;9.70;2.28;;;9.90;99.90;;;;;;4984323;28;20069;-71
2023/12/25 02:35:14;;;;;;;6.93;2.15;;;9.90;99.90;;;;;;4988256;28;20039;-72
2023/12/25 02:37:40;;;;;;;5.25;2.40;;;9.90;99.90;;;;;;4983144;28;20823;-72
2023/12/25 02:40:06;;;;;;;10.55;1.48;;;9.90;99.90;;;;;;4982315;28;20468;-72
2023/12/25 02:42:32;;;;;;;4.03;1.33;;;9.90;99.90;;;;;;4985133;28;20153;-71
2023/12/25 02:44:57;;;;;;;3.15;1.00;;;9.90;99.90;;;;;;4998435;28;20761;-72
2023/12/25 02:47:23;;;;;;;3.08;1.35;;;9.90;99.90;;;;;;5002335;28;20037;-71
2023/12/25 02:49:49;;;;;;;1.70;1.35;;;9.90;99.90;;;;;;5001289;28;20049;-72
2023/12/25 02:52:14;;;;;;;4.65;1.90;;;9.90;99.90;;;;;;4989649;28;20047;-71
2023/12/25 02:54:40;;;;;;;3.97;1.30;;;9.90;99.90;;;;;;4981698;28;20428;-72
2023/12/25 02:57:05;;;;;;;3.00;1.27;;;9.90;99.90;;;;;;5013765;28;20105;-71
2023/12/25 02:59:31;;;;;;;6.75;1.05;;;9.90;99.90;;;;;;4982454;28;20035;-71
2023/12/25 03:01:56;;;;;;;4.80;1.80;;;9.90;99.90;;;;;;4982096;28;20394;-71
2023/12/25 03:04:22;;;;;;;5.80;1.98;;;9.90;99.90;;;;;;4980512;28;20062;-72
2023/12/25 03:06:47;;;;;;;4.03;1.10;;;9.80;99.90;;;;;;4990167;28;20524;-72
2023/12/25 03:09:13;;;;;;;3.55;1.50;;;9.90;99.90;;;;;;5021394;28;20455;-72
2023/12/25 03:11:40;;;;;;;10.32;1.52;;;9.80;99.90;;;;;;4983275;28;20294;-71
2023/12/25 03:14:05;;;;;;;1.13;1.02;;;9.80;99.90;;;;;;5013099;28;20354;-72
2023/12/25 03:16:31;;;;;;;4.47;1.75;;;9.80;99.90;;;;;;4982157;28;20038;-71
2023/12/25 03:18:56;;;;;;;2.60;1.25;;;9.90;99.90;;;;;;5000929;28;20033;-72
2023/12/25 03:21:22;;;;;;;3.03;1.10;;;9.80;99.90;;;;;;4998344;28;20045;-71
2023/12/25 03:23:48;;;;;;;2.70;1.05;;;9.90;99.90;;;;;;4981563;28;20125;-72
2023/12/25 03:26:13;;;;;;;2.53;1.20;;;9.90;99.90;;;;;;4990570;28;20053;-71
2023/12/25 03:28:39;;;;;;;1.25;0.88;;;9.90;99.90;;;;;;4999899;28;20041;-71
2023/12/25 03:31:04;;;;;;;3.17;0.90;;;9.90;99.90;;;;;;4997782;28;20517;-72
2023/12/25 03:33:30;;;;;;;6.53;0.88;;;9.90;99.90;;;;;;4987642;28;20046;-72
2023/12/25 03:35:56;;;;;;;5.20;2.00;;;9.90;99.90;;;;;;5000785;28;20038;-71
2023/12/25 03:38:22;;;;;;;6.15;1.63;;;9.90;99.90;;;;;;5011915;28;20315;-72
2023/12/25 03:40:48;;;;;;;3.33;1.55;;;9.90;99.90;;;;;;4990536;28;20053;-71
2023/12/25 03:43:13;;;;;;;2.45;0.93;;;10.00;99.90;;;;;;4983267;28;20057;-72
2023/12/25 03:45:39;;;;;;;7.55;2.42;;;9.90;99.90;;;;;;4982741;28;20060;-71
2023/12/25 03:48:05;;;;;;;2.58;0.80;;;10.00;99.90;;;;;;4997986;28;20065;-71
2023/12/25 03:50:30;;;;;;;5.10;1.05;;;9.90;99.90;;;;;;4980131;28;20366;-73
2023/12/25 03:52:56;;;;;;;5.35;1.73;;;9.90;99.90;;;;;;5012132;28;20594;-71
2023/12/25 03:55:21;;;;;;;3.60;2.10;;;9.90;99.90;;;;;;4980155;28;20234;-71
2023/12/25 03:57:47;;;;;;;3.63;1.83;;;9.90;99.90;;;;;;5021992;28;20054;-72
2023/12/25 04:00:13;;;;;;;3.67;1.40;;;9.90;99.90;;;;;;5012069;28;20060;-71
2023/12/25 04:02:39;;;;;;;2.22;0.90;;;9.90;99.90;;;;;;4979932;28;20112;-72
2023/12/25 04:05:06;;;;;;;4.57;0.98;;;9.90;99.90;;;;;;4998240;28;20049;-72
2023/12/25 04:07:31;;;;;;;3.58;0.95;;;9.90;99.90;;;;;;5000330;28;20052;-72
2023/12/25 04:09:59;;;;;;;2.55;1.38;;;9.90;99.90;;;;;;4988948;28;20034;-72
2023/12/25 04:12:24;;;;;;;2.05;1.38;;;9.90;99.90;;;;;;4979606;28;20049;-71
2023/12/25 04:14:50;;;;;;;3.88;1.95;;;9.80;99.90;;;;;;4979041;28;20046;-73
2023/12/25 04:17:16;;;;;;;3.78;1.20;;;9.80;99.90;;;;;;4981509;28;20038;-72
2023/12/25 04:19:42;;;;;;;4.93;1.05;;;9.80;99.90;;;;;;4980752;28;20464;-71
2023/12/25 04:22:07;;;;;;;4.78;1.85;;;9.80;99.90;;;;;;4978882;28;20134;-71
2023/12/25 04:24:33;;;;;;;4.38;1.02;;;9.90;99.90;;;;;;4979207;28;20125;-72
2023/12/25 04:26:58;;;;;;;3.20;1.60;;;9.90;99.90;;;;;;4980613;28;20074;-71
2023/12/25 04:29:24;;;;;;;5.80;1.50;;;9.80;99.90;;;;;;4994367;28;20588;-71
2023/12/25 04:31:49;;;;;;;3.08;1.00;;;9.80;99.90;;;;;;5018100;28;20050;-71
2023/12/25 04:34:16;;;;;;;4.60;1.55;;;9.90;99.90;;;;;;4993057;28;20046;-71
2023/12/25 04:36:41;;;;;;;2.03;0.68;;;9.90;99.90;;;;;;4988959;28;20346;-71
2023/12/25 04:39:07;;;;;;;6.88;2.45;;;9.90;99.90;;;;;;4999976;28;20488;-71
2023/12/25 04:41:32;;;;;;;5.10;1.88;;;9.90;99.90;;;;;;5012165;28;20038;-72
2023/12/25 04:43:58;;;;;;;3.08;1.05;;;9.90;99.90;;;;;;4994365;28;20074;-71
2023/12/25 04:46:24;;;;;;;3.13;1.08;;;9.90;99.90;;;;;;4981996;28;20044;-72
2023/12/25 04:48:49;;;;;;;4.57;1.67;;;9.90;99.90;;;;;;4995527;28;20050;-72
2023/12/25 04:51:15;;;;;;;3.60;1.20;;;9.90;99.90;;;;;;4979566;28;20081;-72
2023/12/25 04:53:41;;;;;;;4.95;1.48;;;9.90;99.90;;;;;;5012298;28;20609;-72
2023/12/25 04:56:10;;;;;;;1.55;1.13;;;9.90;99.90;;;;;;5010515;28;20046;-71
2023/12/25 04:58:36;;;;;;;5.30;2.08;;;9.90;99.90;;;;;;4969057;28;20038;-72
2023/12/25 05:01:06;;;;;;;3.13;1.35;;;9.90;99.90;;;;;;4980123;28;20088;-72
2023/12/25 05:03:32;;;;;;;10.45;1.95;;;9.90;99.90;;;;;;5011890;28;20050;-71
2023/12/25 05:05:57;;;;;;;3.75;1.25;;;9.90;99.90;;;;;;4984252;28;20471;-71
2023/12/25 05:08:23;;;;;;;5.45;0.80;;;9.90;99.90;;;;;;4995371;28;20226;-72
2023/12/25 05:10:49;;;;;;;6.53;1.58;;;9.90;99.90;;;;;;4995481;28;20046;-71
2023/12/25 05:13:14;;;;;;;6.55;2.03;;;9.90;99.90;;;;;;4979452;28;20378;-72
2023/12/25 05:15:40;;;;;;;1.55;1.13;;;9.80;99.90;;;;;;4979730;28;20057;-71
2023/12/25 05:18:06;;;;;;;2.83;1.30;;;9.80;99.90;;;;;;4981111;28;20038;-72
2023/12/25 05:20:31;;;;;;;3.75;1.05;;;9.90;99.90;;;;;;4989636;28;20150;-71
2023/12/25 05:22:57;;;;;;;3.40;1.05;;;9.80;99.90;;;;;;4977902;28;20038;-71
2023/12/25 05:25:23;;;;;;;2.60;1.23;;;9.80;99.90;;;;;;5011165;28;20050;-72
2023/12/25 05:27:48;;;;;;;6.10;1.23;;;9.80;99.90;;;;;;4980070;28;20127;-71
2023/12/25 05:30:14;;;;;;;2.47;1.33;;;9.80;99.90;;;;;;4978626;28;20314;-72
2023/12/25 05:32:39;;;;;;;1.73;0.93;;;9.70;99.90;;;;;;4981635;28;20065;-71
2023/12/25 05:35:05;;;;;;;12.65;2.38;;;9.70;99.90;;;;;;4996795;28;20050;-71
2023/12/25 05:37:31;;;;;;;3.67;1.23;;;9.70;99.90;;;;;;5028198;28;20038;-71
2023/12/25 05:39:57;;;;;;;12.23;1.63;;;9.70;99.90;;;;;;4964156;28;20034;-71
2023/12/25 05:42:23;;;;;;;5.05;1.67;;;9.70;99.90;;;;;;4996864;28;20038;-72
2023/12/25 05:44:48;;;;;;;7.38;1.35;;;9.60;99.90;;;;;;4988782;28;20130;-71
2023/12/25 05:47:14;;;;;;;6.05;1.63;;;9.60;99.90;;;;;;4999105;28;20234;-71
2023/12/25 05:49:40;;;;;;;6.13;1.48;;;9.60;99.90;;;;;;5013881;28;20413;-72
2023/12/25 05:52:05;;;;;;;5.20;1.30;;;9.50;99.90;;;;;;4979181;28;20039;-73
2023/12/25 05:54:31;;;;;;;1.20;1.08;;;9.60;99.90;;;;;;4995024;28;20038;-71
2023/12/25 05:56:57;;;;;;;6.10;1.13;;;9.50;99.90;;;;;;4977775;28;20104;-71
2023/12/25 05:59:23;;;;;;;7.20;1.35;;;9.50;99.90;;;;;;4979297;28;20121;-72
2023/12/25 06:01:48;;;;;;;4.70;1.67;;;9.50;99.90;;;;;;4980714;28;20046;-72
2023/12/25 06:04:14;;;;;;;4.15;2.03;;;9.60;99.90;;;;;;4992861;28;20130;-71
2023/12/25 06:06:40;;;;;;;2.00;1.35;;;9.60;99.90;;;;;;5015221;28;20112;-71
2023/12/25 06:09:06;;;;;;;7.13;1.60;;;9.60;99.90;;;;;;4981813;28;20042;-71
2023/12/25 06:11:32;;;;;;;5.63;1.90;;;9.60;99.90;;;;;;4989293;28;20121;-72
2023/12/25 06:13:57;;;;;;;11.85;1.23;;;9.60;99.90;;;;;;4984456;28;20632;-71
2023/12/25 06:16:23;;;;;;;7.60;2.80;;;9.60;99.90;;;;;;5000079;28;20046;-71
2023/12/25 06:18:49;;;;;;;10.98;1.67;;;9.60;99.90;;;;;;5025586;28;20061;-71
2023/12/25 06:21:15;;;;;;;3.20;0.90;;;9.50;99.90;;;;;;5000907;28;20091;-71
2023/12/25 06:23:40;;;;;;;6.00;2.70;;;9.60;99.90;;;;;;4990806;28;20054;-72
2023/12/25 06:26:06;;;;;;;4.25;1.08;;;9.60;99.90;;;;;;4993014;28;20041;-72
2023/12/25 06:28:32;;;;;;;2.95;1.05;;;9.50;99.90;;;;;;4995538;28;20477;-71
2023/12/25 06:30:57;;;;;;;8.27;2.55;;;9.60;99.90;;;;;;4990993;28;20049;-71
2023/12/25 06:33:23;;;;;;;5.10;1.70;;;9.50;99.90;;;;;;4990303;28;20034;-72
2023/12/25 06:35:49;;;;;;;3.78;1.63;;;9.50;99.90;;;;;;5000553;28;20125;-72
2023/12/25 06:38:14;;;;;;;5.45;1.40;;;9.50;99.90;;;;;;4990849;28;20555;-71
2023/12/25 06:40:40;;;;;;;8.43;1.30;;;9.50;99.90;;;;;;4996970;28;20527;-72
2023/12/25 06:43:07;;;;;;;2.55;1.05;;;9.50;99.90;;;;;;4984613;28;20077;-72
2023/12/25 06:45:34;;;;;;;3.38;1.00;;;9.40;99.90;;;;;;4989617;28;20117;-71
2023/12/25 06:48:00;;;;;;;2.05;1.40;;;9.50;99.90;;;;;;4982015;28;20053;-72
2023/12/25 06:50:25;;;;;;;4.70;1.45;;;9.40;99.90;;;;;;5024006;28;20042;-72
2023/12/25 06:52:51;;;;;;;4.35;1.35;;;9.40;99.90;;;;;;4992042;28;20298;-72
2023/12/25 06:55:16;;;;;;;3.85;1.42;;;9.40;99.90;;;;;;4983570;28;20125;-71
2023/12/25 06:57:42;;;;;;;6.63;1.77;;;9.40;99.90;;;;;;4984380;28;20062;-71
2023/12/25 07:00:08;;;;;;;2.65;1.58;;;9.40;99.90;;;;;;4982038;28;20262;-71
2023/12/25 07:02:34;;;;;;;4.25;0.75;;;9.40;99.90;;;;;;4983213;28;20080;-72
2023/12/25 07:04:59;;;;;;;2.00;0.85;;;9.40;99.90;;;;;;5013913;28;20093;-72
2023/12/25 07:07:25;;;;;;;1.70;0.93;;;9.40;99.90;;;;;;4984544;28;20327;-72
2023/12/25 07:09:51;;;;;;;2.65;1.23;;;9.40;99.90;;;;;;4985849;28;20046;-72
2023/12/25 07:12:16;;;;;;;4.00;1.50;;;9.40;99.90;;;;;;4971463;28;20499;-72
2023/12/25 07:14:45;;;;;;;6.20;1.02;;;9.40;99.90;;;;;;4982247;28;20133;-71
2023/12/25 07:17:11;;;;;;;2.33;1.00;;;9.40;99.90;;;;;;4987975;28;20056;-71
2023/12/25 07:19:36;;;;;;;4.10;1.45;;;9.40;99.90;;;;;;4988080;28;20038;-72
2023/12/25 07:22:02;;;;;;;1.35;1.25;;;9.40;99.90;;;;;;4979543;28;20057;-71
2023/12/25 07:24:28;;;;;;;4.07;1.10;;;9.40;99.90;;;;;;4983506;28;20041;-71
2023/12/25 07:26:53;;;;;;;10.45;2.03;;;9.30;99.90;;;;;;5026363;28;20134;-72
2023/12/25 07:29:20;;;;;;;6.95;1.27;;;9.30;99.90;;;;;;4988583;28;20042;-72
2023/12/25 07:31:45;;;;;;;6.00;1.33;;;9.30;99.90;;;;;;4985876;28;20077;-71
2023/12/25 07:34:11;;;;;;;6.82;1.52;;;9.30;99.90;;;;;;4988911;28;20051;-71
2023/12/25 07:36:36;;;;;;;3.38;1.52;;;9.30;99.90;;;;;;4988103;28;20050;-72
2023/12/25 07:39:04;;;;;;;2.17;1.00;;;9.30;99.90;;;;;;4980520;28;20069;-71
2023/12/25 07:41:31;;;;;;;2.42;1.17;;;9.30;99.90;;;;;;5022459;28;20053;-71
2023/12/25 07:44:00;;;;;;;9.52;2.10;;;9.40;99.90;;;;;;4999653;28;20145;-71
2023/12/25 07:46:26;;;;;;;3.28;1.45;;;9.30;99.90;;;;;;4985686;28;20121;-72
2023/12/25 07:48:52;;;;;;;6.22;1.00;;;9.30;99.90;;;;;;4980894;28;20078;-71
2023/12/25 07:51:18;;;;;;;2.35;1.90;;;9.30;99.90;;;;;;4986647;28;20092;-71
2023/12/25 07:53:43;;;;;;;3.05;0.85;;;9.30;99.90;;;;;;5015117;28;20153;-71
2023/12/25 07:56:09;;;;;;;9.32;1.42;;;9.30;99.90;;;;;;4996115;28;20780;-72
2023/12/25 07:58:35;;;;;;;4.15;1.25;;;9.30;99.90;;;;;;4987973;28;20522;-71
2023/12/25 08:01:01;;;;;;;1.85;0.73;;;9.30;99.90;;;;;;4996844;28;20123;-71
2023/12/25 08:03:27;;;;;;;6.93;1.17;;;9.20;99.90;;;;;;4992867;28;20047;-72
2023/12/25 08:05:53;;;;;;;2.40;0.35;;;9.10;99.90;;;;;;4984487;28;20047;-71
2023/12/25 08:08:18;;;;;;;1.60;0.77;;;9.10;99.90;;;;;;5015329;28;20060;-71
2023/12/25 08:10:44;;;;;;;0.95;0.88;;;9.10;99.90;;;;;;5028335;28;20049;-71
2023/12/25 08:13:10;;;;;;;3.45;0.75;;;9.10;99.90;;;;;;4996216;28;20048;-72
2023/12/25 08:15:36;;;;;;;4.78;0.95;;;9.00;99.90;;;;;;4990074;28;20050;-71
2023/12/25 08:18:01;;;;;;;1.95;0.80;;;9.00;99.90;;;;;;4980945;28;20434;-72
2023/12/25 08:20:27;;;;;;;0.77;0.55;;;9.00;99.90;;;;;;4991618;28;20050;-72
2023/12/25 08:22:52;;;;;;;4.95;0.85;;;8.90;99.90;;;;;;4979823;28;20061;-72
2023/12/25 08:25:18;;;;;;;4.43;1.88;;;8.90;99.90;;;;;;4985653;28;20646;-74
2023/12/25 08:27:44;;;;;;;1.60;0.70;;;8.90;99.90;;;;;;4985206;28;20331;-72
2023/12/25 08:30:11;;;;;;;9.30;1.50;;;8.90;99.90;;;;;;4981019;28;20252;-72
2023/12/25 08:32:36;;;;;;;2.40;0.75;;;8.80;99.90;;;;;;4988171;28;20042;-73
2023/12/25 08:35:03;;;;;;;2.28;1.08;;;8.80;99.90;;;;;;4997048;28;20048;-73
2023/12/25 08:37:29;;;;;;;4.40;1.35;;;8.80;99.90;;;;;;4989207;28;20034;-74
2023/12/25 08:39:54;;;;;;;2.20;1.02;;;8.80;99.90;;;;;;4986857;28;20041;-73
2023/12/25 08:42:20;;;;;;;3.15;2.08;;;8.80;99.90;;;;;;5016476;28;20078;-73
2023/12/25 08:44:47;;;;;;;4.75;0.98;;;8.80;99.90;;;;;;5012415;28;20141;-73
2023/12/25 08:47:14;;;;;;;3.50;0.98;;;8.70;99.90;;;;;;4997487;28;20246;-73
2023/12/25 08:49:40;;;;;;;8.75;2.17;;;8.70;99.90;;;;;;4981050;28;20291;-73
2023/12/25 08:52:06;;;;;;;4.72;1.02;;;8.70;99.90;;;;;;4969777;28;20133;-73
2023/12/25 08:54:31;;;;;;;1.27;0.55;;;8.70;99.90;;;;;;4983316;28;20492;-73
2023/12/25 08:57:00;;;;;;;4.35;0.90;;;8.70;99.90;;;;;;4981711;28;20034;-74
2023/12/25 08:59:26;;;;;;;2.83;0.85;;;8.70;99.90;;;;;;4962899;28;20034;-74
2023/12/25 09:01:51;;;;;;;1.95;0.82;;;8.70;99.90;;;;;;5013872;28;20053;-74
2023/12/25 09:04:17;;;;;;;2.55;1.10;;;8.70;99.90;;;;;;4975565;28;20051;-75
2023/12/25 09:06:43;;;;;;;10.23;1.88;;;8.70;99.90;;;;;;4972745;28;20092;-75
2023/12/25 09:09:11;;;;;;;4.00;1.17;;;8.70;99.90;;;;;;5011703;28;20125;-75
2023/12/25 09:11:37;;;;;;;4.63;1.83;;;8.70;99.90;;;;;;4994708;28;20065;-74
2023/12/25 09:14:03;;;;;;;0.85;0.73;;;8.70;99.90;;;;;;4982600;28;20049;-76
2023/12/25 09:16:29;;;;;;;2.28;0.90;;;8.70;99.90;;;;;;4981621;28;20050;-76
2023/12/25 09:18:54;;;;;;;3.63;1.15;;;8.70;99.90;;;;;;5008165;28;20038;-76
2023/12/25 09:21:20;;;;;;;1.20;0.57;;;8.70;99.90;;;;;;4980163;28;20467;-75
2023/12/25 09:23:47;;;;;;;5.18;1.10;;;8.70;99.90;;;;;;4978113;28;20540;-76
2023/12/25 09:26:19;;;;;;;3.30;1.17;;;8.70;99.90;;;;;;4979766;28;20529;-75
2023/12/25 09:28:45;;;;;;;2.45;1.33;;;8.80;99.90;;;;;;4963549;28;20100;-75
2023/12/25 09:31:11;;;;;;;2.92;1.20;;;8.80;99.90;;;;;;5012714;28;20765;-74
2023/12/25 09:33:37;;;;;;;2.08;1.15;;;8.80;99.90;;;;;;4973968;28;20069;-74
2023/12/25 09:36:03;;;;;;;3.08;1.40;;;8.80;99.90;;;;;;4986139;28;20412;-72
2023/12/25 09:38:28;;;;;;;2.78;1.67;;;8.80;99.90;;;;;;4983952;28;20050;-72
2023/12/25 09:40:55;;;;;;;8.27;1.67;;;8.90;99.90;;;;;;5016337;28;20046;-72
2023/12/25 09:43:21;;;;;;;4.20;0.47;;;8.80;99.90;;;;;;4984312;28;20125;-72
2023/12/25 09:45:48;;;;;;;2.83;1.40;;;8.90;99.90;;;;;;5016506;28;20522;-72
2023/12/25 09:48:14;;;;;;;7.72;1.30;;;8.90;99.90;;;;;;4983600;28;20366;-73
2023/12/25 09:50:41;;;;;;;10.73;2.47;;;8.90;99.90;;;;;;4967435;28;20066;-72
2023/12/25 09:53:07;;;;;;;5.40;1.15;;;8.90;99.90;;;;;;4987006;28;20143;-72
2023/12/25 09:55:32;;;;;;;5.50;1.88;;;8.90;99.90;;;;;;4990943;28;20125;-73
2023/12/25 09:58:02;;;;;;;2.63;1.02;;;8.90;99.90;;;;;;4991311;28;20042;-73
2023/12/25 10:00:28;;;;;;;2.63;1.10;;;8.90;99.90;;;;;;4984852;28;20102;-73
2023/12/25 10:02:57;;;;;;;3.75;0.95;;;8.90;99.90;;;;;;5015608;28;20073;-73
2023/12/25 10:05:22;;;;;;;3.08;1.30;;;8.90;99.90;;;;;;4991738;28;20108;-73
2023/12/25 10:07:48;;;;;;;2.13;1.30;;;8.90;99.90;;;;;;4984208;28;20062;-73
2023/12/25 10:10:14;;;;;;;4.15;1.08;;;8.90;99.90;;;;;;4972491;28;20457;-72
2023/12/25 10:12:44;;;;;;;4.13;1.45;;;8.90;99.90;;;;;;4992113;28;20049;-72
2023/12/25 10:15:13;;;;;;;2.45;1.42;;;9.00;99.90;;;;;;4982469;28;20575;-72
2023/12/25 10:17:39;;;;;;;1.85;1.05;;;9.00;99.90;;;;;;5002215;28;20068;-72
2023/12/25 10:20:07;;;;;;;4.40;1.35;;;9.00;99.90;;;;;;4965705;28;20046;-72
2023/12/25 10:22:38;;;;;;;4.47;1.52;;;9.00;99.90;;;;;;4972864;28;20042;-73
2023/12/25 10:25:06;;;;;;;6.60;1.40;;;9.00;99.90;;;;;;4975745;28;20047;-73
2023/12/25 10:27:36;;;;;;;5.82;1.48;;;9.00;99.90;;;;;;4969558;28;20039;-73
2023/12/25 10:30:05;;;;;;;13.77;1.95;;;9.00;99.90;;;;;;4979035;28;20054;-74
2023/12/25 10:32:32;;;;;;;2.80;1.60;;;9.10;99.90;;;;;;4966956;28;20038;-73
2023/12/25 10:35:17;;;;;;;6.22;1.70;;;9.10;99.90;;;;;;4965838;28;20051;-73
2023/12/25 10:37:45;;;;;;;11.40;4.47;;;9.10;99.90;;;;;;4981961;28;20504;-75
2023/12/25 10:40:24;;;;;;;8.35;3.47;;;9.10;99.90;;;;;;5013819;28;20080;-73
2023/12/25 10:42:51;;;;;;;8.93;2.30;;;9.20;99.90;;;;;;4986269;28;20037;-73
2023/12/25 10:45:22;;;;;;;9.75;3.58;;;9.10;99.90;;;;;;4989253;28;20173;-73
2023/12/25 10:48:10;;;;;;;6.30;2.55;;;9.20;99.90;;;;;;4980386;28;20054;-73
2023/12/25 10:50:36;;;;;;;4.57;2.33;;;9.10;99.90;;;;;;4994254;28;20058;-73
2023/12/25 10:53:03;;;;;;;7.55;3.00;;;9.20;99.90;;;;;;4992704;28;20540;-73
2023/12/25 10:55:41;;;;;;;6.32;1.70;;;9.20;99.90;;;;;;4945563;28;20043;-73
2023/12/25 10:58:16;;;;;;;3.97;1.95;;;9.30;99.90;;;;;;4988671;28;20034;-74
2023/12/25 11:00:56;;;;;;;4.93;2.17;;;9.30;99.90;;;;;;4983853;28;20042;-73
2023/12/25 11:03:22;;;;;;;6.75;1.95;;;9.30;99.90;;;;;;4981290;28;20312;-72
2023/12/25 11:05:49;;;;;;;2.72;1.60;;;9.30;99.90;;;;;;4964291;28;20081;-73
2023/12/25 11:08:19;;;;;;;7.53;2.22;;;9.30;99.90;;;;;;4981317;28;20491;-73
2023/12/25 11:10:45;;;;;;;6.00;2.20;;;9.30;99.90;;;;;;4980264;28;20051;-73
2023/12/25 11:13:15;;;;;;;9.05;2.25;;;9.40;99.90;;;;;;5011970;28;20050;-73
2023/12/25 11:15:40;;;;;;;6.50;3.67;;;9.40;99.90;;;;;;5019143;28;20135;-73
2023/12/25 11:18:09;;;;;;;7.05;2.55;;;9.40;99.90;;;;;;4991836;28;20086;-73
2023/12/25 11:20:34;;;;;;;6.47;1.55;;;9.30;99.90;;;;;;4993814;28;20049;-73
2023/12/25 11:23:02;;;;;;;9.73;2.90;;;9.40;99.90;;;;;;5014989;28;20053;-73
2023/12/25 11:25:32;;;;;;;5.30;2.13;;;9.40;99.90;;;;;;4963135;28;20057;-73
2023/12/25 11:27:59;;;;;;;8.82;1.95;;;9.40;99.90;;;;;;4957227;28;20038;-72
2023/12/25 11:30:25;;;;;;;3.10;1.52;;;9.40;99.90;;;;;;4978943;28;20046;-73
2023/12/25 11:32:53;;;;;;;5.25;1.77;;;9.40;99.90;;;;;;5012701;28;20505;-72
2023/12/25 11:35:31;;;;;;;3.92;2.45;;;9.40;99.90;;;;;;4982100;28;20545;-72
2023/12/25 11:38:19;;;;;;;25.17;10.15;;;9.40;99.90;;;;;;4980110;28;20042;-73
2023/12/25 11:40:45;;;;;;;54.42;18.17;;;9.40;99.90;;;;;;5003750;28;20053;-73
2023/12/25 11:43:14;;;;;;;34.88;19.00;;;9.40;99.90;;;;;;4979118;28;20053;-73
2023/12/25 11:45:43;;;;;;;12.32;6.63;;;9.50;99.90;;;;;;4962388;28;21433;-73
2023/12/25 11:48:11;;;;;;;13.27;4.35;;;9.40;99.90;;;;;;4977430;28;20425;-72
2023/12/25 11:50:37;;;;;;;3.67;2.10;;;9.50;99.90;;;;;;4970812;28;20085;-72
2023/12/25 11:53:03;;;;;;;8.10;3.58;;;9.40;99.90;;;;;;4964911;28;20035;-73
2023/12/25 11:55:30;;;;;;;6.80;1.83;;;9.40;99.90;;;;;;4987101;28;20725;-74
2023/12/25 11:57:56;;;;;;;5.97;2.55;;;9.50;99.90;;;;;;4980666;28;20039;-72
2023/12/25 12:00:24;;;;;;;4.00;2.00;;;9.40;99.90;;;;;;4976402;28;20258;-72
2023/12/25 12:02:49;;;;;;;6.65;3.28;;;9.40;99.90;;;;;;4979799;28;20498;-73
2023/12/25 12:05:16;;;;;;;8.63;2.10;;;9.40;99.90;;;;;;4978446;28;20053;-73
2023/12/25 12:07:43;;;;;;;4.93;1.83;;;9.40;99.90;;;;;;4978762;28;20042;-73
2023/12/25 12:10:09;;;;;;;5.55;1.67;;;9.50;99.90;;;;;;4973019;28;20353;-72
2023/12/25 12:12:39;;;;;;;5.18;2.38;;;9.50;99.90;;;;;;4979394;28;20080;-74
2023/12/25 12:15:06;;;;;;;6.00;2.08;;;9.50;99.90;;;;;;4986334;28;20043;-75
2023/12/25 12:17:32;;;;;;;4.47;1.88;;;9.50;99.90;;;;;;4980444;28;20042;-73
2023/12/25 12:19:58;;;;;;;6.60;2.92;;;9.50;99.90;;;;;;4977656;28;20058;-74
2023/12/25 12:22:26;;;;;;;3.67;1.85;;;9.50;99.90;;;;;;4975175;28;20052;-73
2023/12/25 12:24:52;;;;;;;1.63;0.90;;;9.50;99.90;;;;;;4974980;28;20057;-74
2023/12/25 12:27:20;;;;;;;8.55;2.10;;;9.50;99.90;;;;;;4978247;28;20133;-73
2023/12/25 12:29:50;;;;;;;5.00;1.23;;;9.50;99.90;;;;;;4963162;28;20045;-73
2023/12/25 12:32:16;;;;;;;13.82;1.13;;;9.50;99.90;;;;;;4975529;28;20042;-74
2023/12/25 12:34:43;;;;;;;5.40;2.00;;;9.50;99.90;;;;;;4978816;28;20433;-75
2023/12/25 12:37:09;;;;;;;3.58;1.40;;;9.50;99.90;;;;;;4979369;28;20129;-74
2023/12/25 12:39:36;;;;;;;4.28;1.30;;;9.50;99.90;;;;;;4976493;28;20053;-74
2023/12/25 12:42:10;;;;;;;3.72;2.05;;;9.50;99.90;;;;;;4977846;28;20423;-73
2023/12/25 12:44:36;;;;;;;7.43;1.42;;;9.50;99.90;;;;;;4973534;28;20464;-73
2023/12/25 12:47:01;;;;;;;1.33;0.90;;;9.50;99.90;;;;;;4962514;28;20093;-73
2023/12/25 12:49:27;;;;;;;6.60;1.27;;;9.60;99.90;;;;;;4953751;28;20082;-72
2023/12/25 12:51:54;;;;;;;5.63;1.40;;;9.60;99.90;;;;;;4996535;28;20693;-72